Boulder Creek (79, 626) Station Data

Red Flag Warning: No
Fire Weather Zone: 258
SDGE Region: Mountain Empire
Lat/Lon: 32.94/-116.636

Observations

Time Wind Speed/Gust Temp(F) RH Fuel Moist Fuel Temp(F) Dewpt(F) Tmax(F) Tmin(F) Accum Precip 10-min Precip SL Press(mb)
4/30 12:00am 100 6 G 7 52° 23% - - 15° 69.6° 51.3° - - -
4/29 11:50pm 106 6 G 8 53° 22% - - 15° 69.6° 51.3° - - -
4/29 11:40pm 103 7 G 8 52° 21% - - 14° 69.6° 51.3° - - -
4/29 11:30pm 101 7 G 8 52° 21% - - 14° 69.6° 51.3° - - -
4/29 11:20pm 91 5 G 7 53° 22% - - 15° 69.6° 51.3° - - -
4/29 11:10pm 99 6 G 7 52° 23% - - 16° 69.6° 51.6° - - -
4/29 11:00pm 96 5 G 6 53° 24% - - 17° 69.6° 51.9° - - -
4/29 10:50pm 109 6 G 7 52° 24% - - 17° 69.6° 51.9° - - -
4/29 10:40pm 99 5 G 7 53° 24% - - 17° 69.6° 52.2° - - -
4/29 10:30pm 88 5 G 6 54° 24% - - 18° 69.6° 52.2° - - -
4/29 10:20pm 76 5 G 6 55° 24% - - 19° 69.6° 52.2° - - -
4/29 10:10pm 63 5 G 6 56° 24% - - 19° 69.6° 52.2° - - -
4/29 10:00pm 61 5 G 7 56° 24% - - 19° 69.6° 52.2° - - -
4/29 9:50pm 74 5 G 6 54° 27% - - 21° 69.6° 52.2° - - -
4/29 9:40pm 102 5 G 7 53° 30% - - 23° 69.6° 52.2° - - -
4/29 9:30pm 106 6 G 7 53° 30% - - 23° 69.6° 52.2° - - -
4/29 9:20pm 115 6 G 7 53° 30% - - 22° 69.6° 52.2° - - -
4/29 9:10pm 114 5 G 7 53° 30% - - 23° 69.6° 52.2° - - -
4/29 9:00pm 111 5 G 7 54° 30% - - 23° 69.6° 52.2° - - -
4/29 8:50pm 117 4 G 6 54° 30% - - 23° 69.6° 52.8° - - -
4/29 8:40pm 74 3 G 4 54° 30% - - 24° 69.6° 52.8° - - -
4/29 8:30pm 69 3 G 5 55° 30% - - 24° 69.6° 52.8° - - -
4/29 8:20pm 101 3 G 5 55° 31% - - 24° 69.6° 52.8° - - -
4/29 8:10pm 97 3 G 5 55° 30% - - 25° 69.6° 52.8° - - -
4/29 8:00pm 63 3 G 4 56° 29% - - 25° 69.6° 52.8° - - -
4/29 7:50pm 49 2 G 4 57° 28% - - 24° 69.6° 52.8° - - -
4/29 7:40pm 17 3 G 5 58° 26% - - 24° 69.6° 52.8° - - -
4/29 7:30pm 358 3 G 5 60° 25% - - 24° 69.6° 52.8° - - -
4/29 7:20pm 334 3 G 4 61° 25% - - 24° 69.6° 52.8° - - -
4/29 7:10pm 316 3 G 5 62° 22% - - 22° 69.6° 52.8° - - -
4/29 7:00pm 278 3 G 6 63° 20% - - 21° 69.6° 52.8° - - -
4/29 6:50pm 277 4 G 8 63° 19% - - 21° 69.6° 52.8° - - -
4/29 6:40pm 264 4 G 7 64° 18% - - 20° 69.6° 52.8° - - -
4/29 6:30pm 229 3 G 6 65° 17% - - 19° 69.6° 52.8° - - -
4/29 6:20pm 235 4 G 9 65° 16% - - 18° 69.6° 52.8° - - -
4/29 6:10pm 228 5 G 10 66° 17% - - 19° 69.6° 52.8° - - -
4/29 6:00pm 234 5 G 10 67° 16% - - 20° 69.6° 52.8° - - -
4/29 5:50pm 224 6 G 11 67° 16% - - 19° 69.6° 52.8° - - -
4/29 5:40pm 232 6 G 13 68° 14% - - 17° 69.6° 52.8° - - -
4/29 5:30pm 277 3 G 8 69° 10% - - 11° 69.6° 52.8° - - -
4/29 5:20pm 303 4 G 9 68° 10% - - 10° 69.5° 52.8° - - -
4/29 5:10pm 73 8 G 15 68° 11% - - 11° 69.5° 52.8° - - -
4/29 5:00pm 61 6 G 14 68° 11% - - 11° 69.5° 52.8° - - -
4/29 4:50pm 59 7 G 14 68° 11% - - 10° 69.5° 52.8° - - -
4/29 4:40pm 45 7 G 16 68° 11% - - 11° 69.5° 52.8° - - -
4/29 4:30pm 67 5 G 11 68° 10% - - 10° 69.5° 52.8° - - -
4/29 4:20pm 27 5 G 14 68° 10% - - 10° 69.5° 52.8° - - -
4/29 4:10pm 46 6 G 13 68° 11% - - 11° 69.5° 52.8° - - -
4/29 4:00pm 45 6 G 12 68° 11% - - 11° 69.5° 52.8° - - -
4/29 3:50pm 15 6 G 13 68° 12% - - 13° 69.5° 52.8° - - -
4/29 3:40pm 64 6 G 12 67° 11% - - 11° 67.8° 52.8° - - -
4/29 3:30pm 85 8 G 15 67° 11% - - 10° 67.4° 52.8° - - -
4/29 3:20pm 39 6 G 14 67° 11% - - 10° 67.4° 52.8° - - -
4/29 3:10pm 68 9 G 16 67° 11% - - 10° 67.4° 52.8° - - -
4/29 3:00pm 73 9 G 21 66° 11% - - 11° 67° 52.8° - - -
4/29 2:50pm 69 9 G 19 66° 12% - - 11° 66.8° 52.8° - - -
4/29 2:40pm 84 9 G 18 66° 12% - - 12° 66.8° 52.8° - - -
4/29 2:30pm 64 7 G 13 65° 12% - - 11° 66.8° 52.8° - - -
4/29 2:20pm 37 7 G 15 66° 11% - - 10° 66.8° 52.8° - - -
4/29 2:10pm 329 7 G 18 65° 10% - - 66.5° 52.8° - - -
4/29 2:00pm 61 4 G 14 65° 11% - - 10° 66.5° 52.8° - - -
4/29 1:50pm 77 4 G 10 66° 13% - - 13° 66.3° 52.8° - - -
4/29 1:40pm 116 6 G 17 64° 13% - - 13° 65.4° 52.8° - - -
4/29 1:30pm 111 9 G 16 64° 13% - - 13° 65.4° 52.8° - - -
4/29 1:20pm 113 7 G 14 64° 14% - - 13° 65.1° 52.8° - - -
4/29 1:10pm 83 6 G 15 63° 13% - - 11° 65° 52.8° - - -
4/29 1:00pm 72 9 G 17 64° 13% - - 13° 65° 52.8° - - -
4/29 12:50pm 71 9 G 16 63° 13% - - 12° 64.4° 52.8° - - -
4/29 12:40pm 63 13 G 23 62° 14% - - 12° 64.4° 52.8° - - -
4/29 12:30pm 88 12 G 23 62° 14% - - 12° 64.4° 52.8° - - -
4/29 12:20pm 84 14 G 26 62° 14% - - 12° 64.4° 52.8° - - -
4/29 12:10pm 75 11 G 22 63° 13% - - 12° 64.4° 52.8° - - -
4/29 12:00pm 75 10 G 17 63° 13% - - 11° 64.4° 52.8° - - -
4/29 11:50am 79 13 G 25 63° 13% - - 11° 64° 52.8° - - -
4/29 11:40am 65 11 G 21 63° 12% - - 10° 64° 52.8° - - -
4/29 11:30am 61 10 G 23 62° 12% - - 63.4° 52.8° - - -
4/29 11:20am 78 9 G 24 62° 12% - - 63.4° 52.8° - - -
4/29 11:10am 64 12 G 20 62° 13% - - 10° 63.4° 52.8° - - -
4/29 11:00am 81 12 G 24 61° 12% - - 63.4° 52.8° - - -
4/29 10:50am 81 10 G 24 63° 11% - - 63.4° 52.8° - - -
4/29 10:40am 80 5 G 16 62° 11% - - 63.3° 52.8° - - -
4/29 10:30am 57 13 G 24 61° 11% - - 62.6° 52.8° - - -
4/29 10:20am 57 12 G 21 62° 9% - - 62.6° 52.8° - - -
4/29 10:10am 69 15 G 32 61° 11% - - 61.6° 52.8° - - -
4/29 10:00am 80 16 G 26 59° 14% - - 10° 60.9° 52.8° - - -
4/29 9:50am 86 22 G 34 58° 14% - - 60.5° 52.8° - - -
4/29 9:40am 70 17 G 29 59° 13% - - 60.5° 52.8° - - -
4/29 9:30am 65 18 G 30 58° 13% - - 60.5° 52.8° - - -
4/29 9:20am 71 21 G 35 58° 12% - - 60.5° 52.8° - - -
4/29 9:10am 74 17 G 30 58° 12% - - 60.5° 52.8° - - -
4/29 9:00am 73 19 G 30 59° 11% - - 60.5° 52.8° - - -
4/29 8:50am 66 22 G 33 56° 12% - - 59.7° 52.8° - - -
4/29 8:40am 63 21 G 35 57° 12% - - 59.7° 52.8° - - -
4/29 8:30am 55 15 G 29 58° 11% - - 59.7° 52.8° - - -
4/29 8:20am 64 24 G 42 55° 12% - - 59.7° 52.8° - - -
4/29 8:10am 67 22 G 34 56° 11% - - 59.7° 52.8° - - -
4/29 8:00am 66 24 G 40 55° 12% - - 59.7° 52.8° - - -
4/29 7:50am 65 24 G 34 54° 12% - - 59.7° 52.8° - - -
4/29 7:40am 69 26 G 37 54° 12% - - 59.7° 52.8° - - -
4/29 7:30am 65 25 G 37 54° 12% - - 59.7° 52.8° - - -
4/29 7:20am 66 26 G 39 54° 12% - - 59.7° 52.8° - - -
4/29 7:10am 67 26 G 38 54° 12% - - 59.7° 52.8° - - -
4/29 7:00am 67 25 G 38 53° 12% - - 59.7° 52.8° - - -
4/29 6:50am 66 25 G 36 54° 12% - - 59.7° 52.8° - - -
4/29 6:40am 67 25 G 40 54° 12% - - 59.7° 52.8° - - -
4/29 6:30am 68 26 G 40 54° 13% - - 59.7° 52.8° - - -
4/29 6:20am 69 24 G 36 55° 13% - - 59.7° 52.8° - - -
4/29 6:10am 69 24 G 39 54° 14% - - 59.7° 52.8° - - -
4/29 6:00am 67 25 G 35 53° 14% - - 59.7° 53° - - -
4/29 5:50am 67 23 G 34 54° 14% - - 59.7° 53° - - -
4/29 5:40am 69 23 G 34 53° 14% - - 59.7° 53° - - -
4/29 5:30am 69 24 G 35 53° 14% - - 59.7° 53.1° - - -
4/29 5:20am 72 24 G 38 54° 13% - - 59.7° 53.4° - - -
4/29 5:10am 70 23 G 33 54° 13% - - 59.7° 53.7° - - -
4/29 5:00am 69 24 G 34 54° 13% - - 59.7° 53.7° - - -
4/29 4:50am 70 23 G 33 54° 14% - - 59.7° 53.7° - - -
4/29 4:40am 71 23 G 37 54° 13% - - 59.7° 53.7° - - -
4/29 4:30am 69 24 G 33 54° 13% - - 59.7° 54° - - -
4/29 4:20am 72 22 G 32 54° 14% - - 59.7° 54.2° - - -
4/29 4:10am 69 21 G 32 55° 14% - - 59.7° 54.2° - - -
4/29 4:00am 72 23 G 32 55° 14% - - 59.7° 54.6° - - -
4/29 3:50am 71 24 G 36 55° 14% - - 59.7° 54.6° - - -
4/29 3:40am 69 22 G 36 55° 14% - - 59.7° 54.8° - - -
4/29 3:30am 71 23 G 34 55° 14% - - 59.7° 54.8° - - -
4/29 3:20am 72 24 G 35 55° 14% - - 59.7° 55° - - -
4/29 3:10am 71 23 G 33 55° 14% - - 59.7° 55.1° - - -
4/29 3:00am 69 22 G 33 56° 14% - - 59.7° 55.2° - - -
4/29 2:50am 71 24 G 37 56° 14% - - 59.7° 55.7° - - -
4/29 2:40am 67 24 G 36 56° 14% - - 59.7° 56° - - -
4/29 2:30am 70 22 G 34 56° 14% - - 59.7° 56.1° - - -
4/29 2:20am 72 22 G 33 57° 13% - - 59.7° 56.3° - - -
4/29 2:10am 70 22 G 32 57° 13% - - 59.7° 56.6° - - -
4/29 2:00am 70 22 G 32 57° 13% - - 59.7° 56.9° - - -
4/29 1:50am 71 23 G 31 57° 13% - - 59.7° 57.2° - - -
4/29 1:40am 69 21 G 30 58° 13% - - 59.7° 57.6° - - -
4/29 1:30am 71 20 G 30 58° 13% - - 59.7° 57.6° - - -
4/29 1:20am 71 20 G 29 58° 13% - - 59.7° 57.9° - - -
4/29 1:10am 70 20 G 33 58° 13% - - 59.7° 57.9° - - -
4/29 1:00am 70 19 G 28 59° 13% - - 59.7° 58.2° - - -
4/29 12:50am 70 19 G 28 59° 13% - - 59.7° 58.3° - - -
4/29 12:40am 69 18 G 28 59° 14% - - 59.7° 58.8° - - -
4/29 12:30am 71 17 G 26 59° 14% - - 59.7° 59° - - -
4/29 12:20am 76 16 G 24 59° 14% - - 10° 59.7° 59° - - -
4/29 12:10am 81 15 G 21 59° 14% - - 10° 59.4° 59° - - -
4/29 12:00am 84 15 G 22 59° 14% - - 10° 67.4° 46.5° - - -
4/28 11:50pm 88 14 G 22 59° 14% - - 11° 67.4° 46.5° - - -
4/28 11:40pm 89 13 G 22 59° 15% - - 11° 67.4° 46.5° - - -
4/28 11:30pm 94 8 G 14 58° 17% - - 13° 67.4° 46.5° - - -
4/28 11:20pm 89 9 G 13 58° 18% - - 15° 67.4° 46.5° - - -
4/28 11:10pm 100 7 G 12 58° 26% - - 23° 67.4° 46.5° - - -
4/28 11:00pm 118 5 G 8 57° 41% - - 34° 67.4° 46.5° - - -
4/28 10:50pm 78 3 G 6 59° 35% - - 32° 67.4° 46.5° - - -
4/28 10:40pm 32 5 G 10 60° 34% - - 31° 67.4° 46.5° - - -
4/28 10:30pm 45 6 G 10 60° 36% - - 33° 67.4° 46.5° - - -
4/28 10:20pm 69 5 G 8 58° 41% - - 34° 67.4° 46.5° - - -
4/28 10:10pm 86 4 G 6 58° 41% - - 35° 67.4° 46.5° - - -
4/28 10:00pm 42 4 G 6 59° 41% - - 35° 67.4° 46.5° - - -
4/28 9:50pm 47 5 G 8 57° 42% - - 34° 67.4° 46.5° - - -
4/28 9:40pm 49 6 G 8 57° 41% - - 33° 67.4° 46.5° - - -
4/28 9:30pm 70 4 G 6 55° 44% - - 34° 67.4° 46.5° - - -
4/28 9:20pm 108 3 G 6 55° 45% - - 34° 67.4° 46.5° - - -
4/28 9:10pm 116 4 G 6 55° 45% - - 35° 67.4° 46.5° - - -
4/28 9:00pm 115 3 G 5 55° 47% - - 35° 67.4° 46.5° - - -
4/28 8:50pm 111 2 G 4 54° 48% - - 35° 67.4° 46.5° - - -
4/28 8:40pm 113 3 G 4 54° 51% - - 36° 67.4° 46.5° - - -
4/28 8:30pm 102 4 G 5 53° 54% - - 36° 67.4° 46.5° - - -
4/28 8:20pm 112 3 G 5 54° 50% - - 36° 67.4° 46.5° - - -
4/28 8:10pm 109 3 G 5 54° 50% - - 36° 67.4° 46.5° - - -
4/28 8:00pm 304 2 G 4 55° 48% - - 36° 67.4° 46.5° - - -
4/28 7:50pm 33 2 G 5 55° 50% - - 36° 67.4° 46.5° - - -
4/28 7:40pm 4 4 G 5 55° 47% - - 35° 67.4° 46.5° - - -
4/28 7:30pm 355 3 G 5 56° 48% - - 37° 67.4° 46.5° - - -
4/28 7:20pm 318 1 G 4 56° 48% - - 37° 67.4° 46.5° - - -
4/28 7:10pm 314 4 G 7 57° 46% - - 37° 67.4° 46.5° - - -
4/28 7:00pm 315 5 G 7 58° 46% - - 37° 67.4° 46.5° - - -
4/28 6:50pm 295 4 G 6 59° 48% - - 39° 67.4° 46.5° - - -
4/28 6:40pm 289 3 G 6 59° 49% - - 40° 67.4° 46.5° - - -
4/28 6:30pm 297 5 G 8 59° 49% - - 40° 67.4° 46.5° - - -
4/28 6:20pm 282 5 G 9 60° 48% - - 40° 67.4° 46.5° - - -
4/28 6:10pm 290 5 G 9 60° 48% - - 41° 67.4° 46.5° - - -
4/28 6:00pm 302 6 G 9 60° 48% - - 41° 67.4° 46.5° - - -